Aviation Digital Data Service (ADDS)

Output produced by METARs form (1304 UTC 20 January 2018)
found at http://aviationweather.gov/adds/metars/
 
KASD 201253Z AUTO 00000KT 10SM CLR 08/03 A3024 RMK AO2 SLP241 T00780033